createdAt,value
2018-06-09T00:02:18.573Z,3.50
2018-06-09T00:04:47.592Z,2.60
2018-06-09T00:07:16.621Z,2.30
2018-06-09T00:09:45.960Z,2.83
2018-06-09T00:12:15.092Z,2.60
2018-06-09T00:14:45.198Z,3.40
2018-06-09T00:17:14.502Z,3.40
2018-06-09T00:19:43.602Z,2.67
2018-06-09T00:22:12.660Z,2.67
2018-06-09T00:24:41.698Z,2.30
2018-06-09T00:27:10.681Z,2.57
2018-06-09T00:29:39.665Z,3.33
2018-06-09T00:32:08.685Z,2.40
2018-06-09T00:34:37.713Z,3.07
2018-06-09T00:37:06.709Z,3.13
2018-06-09T00:39:35.728Z,3.20
2018-06-09T00:42:04.709Z,3.13
2018-06-09T00:44:33.988Z,3.20
2018-06-09T00:47:02.981Z,3.17
2018-06-09T00:49:31.981Z,2.53
2018-06-09T00:52:01.124Z,2.47
2018-06-09T00:54:30.144Z,2.97
2018-06-09T00:56:59.178Z,3.00
2018-06-09T00:59:28.203Z,2.77
2018-06-09T01:01:57.233Z,2.83
2018-06-09T01:04:26.216Z,2.53
2018-06-09T01:06:55.190Z,2.50
2018-06-09T01:09:24.217Z,2.87
2018-06-09T01:11:53.205Z,3.07
2018-06-09T01:14:22.200Z,3.23
2018-06-09T01:16:51.217Z,2.80
2018-06-09T01:19:20.200Z,2.90
2018-06-09T01:21:49.268Z,2.70
2018-06-09T01:24:18.308Z,2.17
2018-06-09T01:26:47.406Z,3.17
2018-06-09T01:29:16.541Z,3.10
2018-06-09T01:31:45.577Z,3.57
2018-06-09T01:34:14.987Z,3.70
2018-06-09T01:36:44.097Z,2.60
2018-06-09T01:39:13.188Z,3.70
2018-06-09T01:41:42.298Z,3.53
2018-06-09T01:44:11.293Z,3.83
2018-06-09T01:46:40.312Z,3.37
2018-06-09T01:49:09.301Z,3.50
2018-06-09T01:51:38.492Z,3.30
2018-06-09T01:54:07.481Z,3.50
2018-06-09T01:56:36.469Z,3.17
2018-06-09T01:59:05.484Z,2.77
2018-06-09T02:01:34.480Z,3.00
2018-06-09T02:04:03.519Z,3.00
2018-06-09T02:06:32.524Z,3.40
2018-06-09T02:09:01.552Z,3.00
2018-06-09T02:11:30.637Z,4.03
2018-06-09T02:13:59.655Z,3.40
2018-06-09T02:16:28.641Z,3.07
2018-06-09T02:18:57.903Z,3.57
2018-06-09T02:21:26.905Z,3.67
2018-06-09T02:23:55.899Z,3.27
2018-06-09T02:26:25.173Z,2.67
2018-06-09T02:28:54.165Z,3.13
2018-06-09T02:31:23.149Z,4.07
2018-06-09T02:33:52.177Z,4.10
2018-06-09T02:36:21.008Z,4.90
2018-06-09T02:38:49.970Z,3.57
2018-06-09T02:41:18.997Z,3.40
2018-06-09T02:43:48.066Z,3.47
2018-06-09T02:46:17.132Z,4.03
2018-06-09T02:48:46.152Z,3.43
2018-06-09T02:51:15.571Z,2.90
2018-06-09T02:53:44.752Z,4.23
2018-06-09T02:56:13.888Z,2.97
2018-06-09T02:58:42.919Z,3.03
2018-06-09T03:01:11.933Z,4.37
2018-06-09T03:03:40.944Z,3.50
2018-06-09T03:06:09.937Z,3.40
2018-06-09T03:08:39.033Z,3.50
2018-06-09T03:11:08.053Z,3.80
2018-06-09T03:13:37.064Z,4.10
2018-06-09T03:16:06.036Z,3.90
2018-06-09T03:18:35.048Z,4.03
2018-06-09T03:21:04.401Z,3.37
2018-06-09T03:23:33.385Z,3.40
2018-06-09T03:26:02.392Z,4.00
2018-06-09T03:28:31.460Z,4.20
2018-06-09T03:31:00.459Z,3.70
2018-06-09T03:33:29.546Z,4.10
2018-06-09T03:35:58.932Z,4.20
2018-06-09T03:38:27.916Z,3.90
2018-06-09T03:40:56.905Z,4.20
2018-06-09T03:43:25.964Z,4.13
2018-06-09T03:45:54.936Z,4.10
2018-06-09T03:48:24.221Z,3.90
2018-06-09T03:50:53.209Z,4.70
2018-06-09T03:53:22.201Z,4.57
2018-06-09T03:55:51.207Z,4.93
2018-06-09T03:58:20.229Z,4.50
2018-06-09T04:00:49.248Z,3.73
2018-06-09T04:03:18.233Z,4.30
2018-06-09T04:05:47.308Z,3.77
2018-06-09T04:08:16.417Z,4.23
2018-06-09T04:10:45.609Z,4.43
2018-06-09T04:13:14.781Z,4.33
2018-06-09T04:15:43.982Z,4.77
2018-06-09T04:18:13.664Z,5.60
2018-06-09T04:20:42.709Z,4.50
2018-06-09T04:23:11.693Z,4.90
2018-06-09T04:25:40.824Z,5.37
2018-06-09T04:28:10.041Z,4.70
2018-06-09T04:30:39.117Z,5.23
2018-06-09T04:33:08.231Z,4.03
2018-06-09T04:35:37.418Z,4.83
2018-06-09T04:38:06.398Z,4.40
2018-06-09T04:40:35.381Z,5.03
2018-06-09T04:43:04.392Z,4.83
2018-06-09T04:45:33.433Z,4.43
2018-06-09T04:48:02.433Z,4.23
2018-06-09T04:50:31.685Z,5.27
2018-06-09T04:53:00.492Z,4.83
2018-06-09T04:55:29.144Z,4.13
2018-06-09T04:57:58.145Z,4.20
2018-06-09T05:00:27.495Z,4.43
2018-06-09T05:02:56.594Z,3.80
2018-06-09T05:05:25.581Z,4.90
2018-06-09T05:07:54.600Z,5.07
2018-06-09T05:10:23.589Z,4.90
2018-06-09T05:12:52.806Z,4.53
2018-06-09T05:15:21.812Z,4.47
2018-06-09T05:17:50.785Z,5.17
2018-06-09T05:20:20.304Z,5.90
2018-06-09T05:22:49.712Z,5.00
2018-06-09T05:25:19.081Z,4.90
2018-06-09T05:27:48.538Z,3.60
2018-06-09T05:30:18.721Z,4.73
2018-06-09T05:32:48.709Z,5.20
2018-06-09T05:35:18.434Z,4.70
2018-06-09T05:37:48.496Z,4.80
2018-06-09T05:40:18.390Z,5.70
2018-06-09T05:42:48.316Z,4.90
2018-06-09T05:45:17.824Z,4.50
2018-06-09T05:47:47.727Z,4.10
2018-06-09T05:50:17.460Z,4.03
2018-06-09T05:52:47.777Z,4.03
2018-06-09T05:55:17.493Z,3.50
2018-06-09T05:57:46.996Z,4.33
2018-06-09T06:00:16.909Z,4.10
2018-06-09T06:02:46.756Z,4.30
2018-06-09T06:05:16.835Z,4.20
2018-06-09T06:07:46.809Z,5.27
2018-06-09T06:10:17.104Z,4.03
2018-06-09T06:12:46.645Z,3.60
2018-06-09T06:15:16.501Z,3.80
2018-06-09T06:17:46.299Z,2.83
2018-06-09T06:20:16.252Z,3.97
2018-06-09T06:22:45.785Z,3.67
2018-06-09T06:25:15.346Z,2.70
2018-06-09T06:27:44.669Z,3.07
2018-06-09T06:30:13.686Z,3.07
2018-06-09T06:32:42.911Z,2.97
2018-06-09T06:35:12.016Z,2.93
2018-06-09T06:37:41.029Z,2.20
2018-06-09T06:40:10.049Z,3.30
2018-06-09T06:42:39.105Z,2.90
2018-06-09T06:45:08.127Z,3.00
2018-06-09T06:47:37.432Z,3.60
2018-06-09T06:50:06.432Z,2.47
2018-06-09T06:52:35.426Z,1.90
2018-06-09T06:55:04.482Z,2.50
2018-06-09T06:57:33.497Z,2.27
2018-06-09T07:00:02.733Z,2.60
2018-06-09T07:02:31.761Z,2.00
2018-06-09T07:05:00.754Z,2.97
2018-06-09T07:07:29.773Z,2.47
2018-06-09T07:09:59.791Z,2.17
2018-06-09T07:12:28.852Z,2.23
2018-06-09T07:14:57.872Z,1.80
2018-06-09T07:17:26.932Z,1.87
2018-06-09T07:19:55.957Z,1.77
2018-06-09T07:22:25.233Z,2.37
2018-06-09T07:24:54.226Z,2.03
2018-06-09T07:27:23.235Z,2.00
2018-06-09T07:29:52.257Z,2.20
2018-06-09T07:32:21.325Z,1.97
2018-06-09T07:34:50.303Z,2.10
2018-06-09T07:37:19.336Z,1.60
2018-06-09T07:39:48.381Z,1.90
2018-06-09T07:42:17.497Z,1.70
2018-06-09T07:44:46.648Z,1.77
2018-06-09T07:47:15.764Z,1.43
2018-06-09T07:49:44.854Z,2.30
2018-06-09T07:52:14.084Z,2.20
2018-06-09T07:54:43.125Z,2.10
2018-06-09T07:57:12.508Z,2.23
2018-06-09T07:59:41.623Z,1.83
2018-06-09T08:02:10.625Z,2.20
2018-06-09T08:04:39.725Z,2.33
2018-06-09T08:07:08.713Z,2.40
2018-06-09T08:09:37.736Z,2.10
2018-06-09T08:12:06.713Z,1.60
2018-06-09T08:14:35.697Z,1.80
2018-06-09T08:17:04.717Z,1.80
2018-06-09T08:19:33.755Z,2.30
2018-06-09T08:22:02.872Z,2.73
2018-06-09T08:24:31.882Z,2.53
2018-06-09T08:27:00.925Z,1.80
2018-06-09T08:29:29.940Z,1.73
2018-06-09T08:31:58.920Z,1.83
2018-06-09T08:34:28.164Z,1.90
2018-06-09T08:36:57.215Z,2.97
2018-06-09T08:39:26.215Z,2.23
2018-06-09T08:41:55.249Z,2.03
2018-06-09T08:44:24.233Z,2.50
2018-06-09T08:46:53.027Z,1.83
2018-06-09T08:49:22.628Z,2.77
2018-06-09T08:51:51.625Z,2.20
2018-06-09T08:54:20.596Z,1.83
2018-06-09T08:56:49.987Z,2.13
2018-06-09T08:59:19.105Z,2.10
2018-06-09T09:01:48.130Z,2.63
2018-06-09T09:04:17.249Z,3.03
2018-06-09T09:06:46.548Z,1.80
2018-06-09T09:09:15.771Z,1.73
2018-06-09T09:11:44.821Z,2.50
2018-06-09T09:14:13.932Z,2.60
2018-06-09T09:16:43.033Z,1.40
2018-06-09T09:19:12.080Z,2.10
2018-06-09T09:21:41.114Z,2.13
2018-06-09T09:24:10.127Z,2.40
2018-06-09T09:26:39.117Z,1.87
2018-06-09T09:29:08.261Z,2.20
2018-06-09T09:31:37.241Z,1.93
2018-06-09T09:34:06.225Z,2.30
2018-06-09T09:36:35.329Z,1.90
2018-06-09T09:39:07.564Z,2.50
2018-06-09T09:41:36.936Z,1.60
2018-06-09T09:44:06.127Z,2.50
2018-06-09T09:46:35.193Z,1.60
2018-06-09T09:49:04.449Z,2.37
2018-06-09T09:51:33.610Z,1.97
2018-06-09T09:54:02.800Z,2.07
2018-06-09T09:56:32.059Z,2.30
2018-06-09T09:59:01.053Z,2.13
2018-06-09T10:01:30.177Z,1.83
2018-06-09T10:03:59.169Z,1.80
2018-06-09T10:06:28.151Z,1.97
2018-06-09T10:08:57.561Z,2.10
2018-06-09T10:11:26.544Z,2.10
2018-06-09T10:13:55.848Z,1.53
2018-06-09T10:16:25.244Z,2.97
2018-06-09T10:18:54.428Z,1.97
2018-06-09T10:21:23.427Z,2.07
2018-06-09T10:23:52.264Z,2.10
2018-06-09T10:26:21.128Z,1.73
2018-06-09T10:28:50.198Z,2.20
2018-06-09T10:31:19.532Z,1.80
2018-06-09T10:33:48.693Z,2.13
2018-06-09T10:36:17.910Z,2.27
2018-06-09T10:38:47.222Z,2.17
2018-06-09T10:41:16.352Z,1.80
2018-06-09T10:43:45.480Z,2.60
2018-06-09T10:46:14.629Z,2.00
2018-06-09T10:48:43.757Z,2.37
2018-06-09T10:51:19.810Z,1.80
2018-06-09T10:53:48.848Z,2.47
2018-06-09T10:56:17.847Z,2.37
2018-06-09T10:58:46.912Z,2.03
2018-06-09T11:01:16.011Z,1.80
2018-06-09T11:03:45.825Z,2.10
2018-06-09T11:06:14.883Z,1.93
2018-06-09T11:08:43.839Z,1.70
2018-06-09T11:11:13.049Z,3.70
2018-06-09T11:13:42.139Z,2.57
2018-06-09T11:16:11.345Z,1.60
2018-06-09T11:18:40.373Z,2.33
2018-06-09T11:21:09.637Z,2.30
2018-06-09T11:23:38.772Z,2.07
2018-06-09T11:26:08.072Z,1.90
2018-06-09T11:28:37.106Z,2.00
2018-06-09T11:31:06.387Z,1.97
2018-06-09T11:33:35.709Z,1.70
2018-06-09T11:36:04.909Z,1.53
2018-06-09T11:38:34.220Z,1.80
2018-06-09T11:41:03.413Z,1.93
2018-06-09T11:43:33.145Z,1.33
2018-06-09T11:46:02.323Z,2.00
2018-06-09T11:48:31.504Z,1.30
2018-06-09T11:51:00.637Z,1.97
2018-06-09T11:53:29.693Z,2.47
2018-06-09T11:55:58.736Z,2.20
2018-06-09T11:58:28.152Z,2.57
2018-06-09T12:00:57.133Z,2.70
2018-06-09T12:03:26.799Z,2.60
2018-06-09T12:05:56.884Z,2.40
2018-06-09T12:08:25.949Z,2.13
2018-06-09T12:10:55.276Z,1.77
2018-06-09T12:13:24.509Z,1.83
2018-06-09T12:15:54.213Z,1.90
2018-06-09T12:18:24.107Z,2.37
2018-06-09T12:20:53.353Z,2.10
2018-06-09T12:23:22.341Z,1.93
2018-06-09T12:25:51.370Z,1.90
2018-06-09T12:28:20.226Z,1.70
2018-06-09T12:30:49.190Z,1.80
2018-06-09T12:33:18.604Z,2.50
2018-06-09T12:35:48.013Z,2.70
2018-06-09T12:38:18.351Z,1.70
2018-06-09T12:40:47.856Z,1.60
2018-06-09T12:43:19.203Z,2.27
2018-06-09T12:45:48.429Z,1.80
2018-06-09T12:48:17.700Z,1.90
2018-06-09T12:50:47.101Z,2.20
2018-06-09T12:53:16.436Z,1.90
2018-06-09T12:55:45.829Z,2.63
2018-06-09T12:58:15.224Z,2.43
2018-06-09T13:00:45.052Z,1.50
2018-06-09T13:03:14.580Z,2.03
2018-06-09T13:05:43.946Z,2.10
2018-06-09T13:08:13.709Z,2.23
2018-06-09T13:10:43.073Z,1.63
2018-06-09T13:13:12.114Z,1.50
2018-06-09T13:15:41.149Z,2.37
2018-06-09T13:18:10.144Z,2.10
2018-06-09T13:20:39.173Z,1.83
2018-06-09T13:23:08.188Z,2.10
2018-06-09T13:25:37.185Z,2.10
2018-06-09T13:28:06.748Z,2.77
2018-06-09T13:30:35.782Z,2.00
2018-06-09T13:33:04.797Z,2.53
2018-06-09T13:35:33.792Z,2.37
2018-06-09T13:38:02.808Z,3.17
2018-06-09T13:40:32.089Z,2.97
2018-06-09T13:43:01.550Z,2.47
2018-06-09T13:45:30.769Z,2.80
2018-06-09T13:48:00.072Z,3.40
2018-06-09T13:50:29.304Z,3.17
2018-06-09T13:52:58.922Z,2.80
2018-06-09T13:55:28.554Z,2.67
2018-06-09T13:57:57.579Z,2.60
2018-06-09T14:00:26.794Z,2.40
2018-06-09T14:02:56.149Z,2.30
2018-06-09T14:05:25.148Z,2.30
2018-06-09T14:07:54.134Z,3.10
2018-06-09T14:10:23.020Z,1.97
2018-06-09T14:12:51.924Z,2.53
2018-06-09T14:15:20.917Z,2.30
2018-06-09T14:17:50.385Z,2.17
2018-06-09T14:20:19.378Z,2.47
2018-06-09T14:22:48.416Z,2.40
2018-06-09T14:25:17.617Z,2.03
2018-06-09T14:27:46.774Z,2.10
2018-06-09T14:30:16.281Z,2.67
2018-06-09T14:32:46.040Z,2.10
2018-06-09T14:35:15.081Z,2.27
2018-06-09T14:37:44.964Z,2.27
2018-06-09T14:40:14.225Z,2.10
2018-06-09T14:42:43.492Z,3.00
2018-06-09T14:45:13.427Z,2.63
2018-06-09T14:47:43.281Z,2.20
2018-06-09T14:50:13.540Z,2.90
2018-06-09T14:52:43.071Z,2.30
2018-06-09T14:55:12.961Z,2.90
2018-06-09T14:57:42.317Z,2.33
2018-06-09T15:00:12.039Z,2.50
2018-06-09T15:02:41.679Z,2.40
2018-06-09T15:05:10.921Z,3.80
2018-06-09T15:07:40.675Z,2.50
2018-06-09T15:10:09.997Z,1.97
2018-06-09T15:12:39.563Z,1.40
2018-06-09T15:15:08.729Z,1.90
2018-06-09T15:17:37.711Z,1.67
2018-06-09T15:20:06.713Z,2.30
2018-06-09T15:22:35.792Z,2.57
2018-06-09T15:25:04.814Z,38.43
2018-06-09T15:27:33.796Z,2.27
2018-06-09T15:30:02.789Z,2.63
2018-06-09T15:32:31.809Z,1.80
2018-06-09T15:35:01.225Z,2.37
2018-06-09T15:37:30.523Z,1.50
2018-06-09T15:39:59.861Z,1.97
2018-06-09T15:42:29.117Z,2.60
2018-06-09T15:44:58.188Z,2.20
2018-06-09T15:47:27.159Z,2.27
2018-06-09T15:49:56.450Z,1.77
2018-06-09T15:52:25.441Z,2.10
2018-06-09T15:54:54.504Z,1.70
2018-06-09T15:57:23.653Z,1.77
2018-06-09T15:59:52.718Z,2.83
2018-06-09T16:02:21.925Z,2.17
2018-06-09T16:04:50.908Z,2.30
2018-06-09T16:07:20.013Z,2.07
2018-06-09T16:09:48.917Z,2.13
2018-06-09T16:12:17.905Z,2.80
2018-06-09T16:14:47.467Z,2.10
2018-06-09T16:17:16.593Z,2.97
2018-06-09T16:19:46.203Z,8.27
2018-06-09T16:22:15.488Z,4.33
2018-06-09T16:24:44.557Z,40.10
2018-06-09T16:27:13.761Z,12.40
2018-06-09T16:29:43.050Z,3.50
2018-06-09T16:32:13.005Z,2.10
2018-06-09T16:34:42.490Z,2.80
2018-06-09T16:37:12.196Z,3.40
2018-06-09T16:39:41.431Z,1.87
2018-06-09T16:42:13.745Z,2.50
2018-06-09T16:44:43.448Z,2.00
2018-06-09T16:47:13.600Z,3.40
2018-06-09T16:49:43.141Z,1.97
2018-06-09T16:52:12.476Z,3.13
2018-06-09T16:54:41.752Z,2.00
2018-06-09T16:57:12.606Z,1.93
2018-06-09T16:59:42.274Z,1.70
2018-06-09T17:02:11.514Z,2.00
2018-06-09T17:04:41.147Z,1.90
2018-06-09T17:07:10.742Z,2.47
2018-06-09T17:09:40.005Z,2.80
2018-06-09T17:12:09.623Z,2.37
2018-06-09T17:14:38.970Z,2.37
2018-06-09T17:17:08.037Z,2.63
2018-06-09T17:19:36.841Z,2.00
2018-06-09T17:22:05.759Z,2.17
2018-06-09T17:24:34.733Z,2.23
2018-06-09T17:27:03.764Z,2.40
2018-06-09T17:29:33.289Z,2.20
2018-06-09T17:32:02.338Z,2.33
2018-06-09T17:34:31.400Z,1.83
2018-06-09T17:37:00.739Z,2.07
2018-06-09T17:39:30.391Z,2.13
2018-06-09T17:41:59.504Z,2.67
2018-06-09T17:44:29.290Z,2.87
2018-06-09T17:46:58.665Z,2.00
2018-06-09T17:49:27.669Z,2.20
2018-06-09T17:51:56.692Z,2.53
2018-06-09T17:54:25.740Z,1.83
2018-06-09T17:56:54.766Z,2.03
2018-06-09T17:59:23.993Z,2.07
2018-06-09T18:01:53.271Z,1.80
2018-06-09T18:04:22.369Z,2.17
2018-06-09T18:06:51.475Z,2.20
2018-06-09T18:09:20.474Z,2.00
2018-06-09T18:11:49.510Z,2.57
2018-06-09T18:14:18.579Z,1.70
2018-06-09T18:16:48.015Z,2.17
2018-06-09T18:19:17.355Z,3.43
2018-06-09T18:21:47.298Z,2.77
2018-06-09T18:24:16.473Z,3.23
2018-06-09T18:26:46.472Z,4.27
2018-06-09T18:29:16.097Z,5.03
2018-06-09T18:31:45.265Z,6.20
2018-06-09T18:34:14.733Z,6.50
2018-06-09T18:36:44.166Z,6.80
2018-06-09T18:39:13.513Z,6.90
2018-06-09T18:41:42.641Z,8.60
2018-06-09T18:44:11.755Z,7.63
2018-06-09T18:46:41.276Z,7.43
2018-06-09T18:49:10.602Z,7.83
2018-06-09T18:51:39.780Z,8.17
2018-06-09T18:54:08.850Z,8.97
2018-06-09T18:56:37.882Z,7.60
2018-06-09T18:59:06.913Z,8.27
2018-06-09T19:01:35.896Z,7.93
2018-06-09T19:04:05.234Z,7.10
2018-06-09T19:06:34.449Z,8.90
2018-06-09T19:09:03.696Z,8.90
2018-06-09T19:11:32.699Z,8.17
2018-06-09T19:14:02.211Z,7.80
2018-06-09T19:16:31.615Z,9.17
2018-06-09T19:19:01.392Z,8.70
2018-06-09T19:21:30.541Z,8.77
2018-06-09T19:23:59.604Z,9.47
2018-06-09T19:26:28.940Z,7.40
2018-06-09T19:29:00.338Z,7.60
2018-06-09T19:31:29.548Z,8.60
2018-06-09T19:33:59.085Z,7.90
2018-06-09T19:36:28.150Z,8.30
2018-06-09T19:38:57.244Z,8.77
2018-06-09T19:41:26.297Z,7.20
2018-06-09T19:43:55.377Z,8.13
2018-06-09T19:46:24.376Z,8.33
2018-06-09T19:48:53.477Z,7.60
2018-06-09T19:51:22.464Z,7.73
2018-06-09T19:53:52.381Z,7.77
2018-06-09T19:56:21.443Z,7.20
2018-06-09T19:58:50.490Z,7.00
2018-06-09T20:01:19.722Z,7.83
2018-06-09T20:03:48.741Z,7.50
2018-06-09T20:06:17.768Z,7.23
2018-06-09T20:08:47.370Z,7.97
2018-06-09T20:11:16.620Z,8.23
2018-06-09T20:13:47.830Z,9.30
2018-06-09T20:16:17.451Z,8.20
2018-06-09T20:18:46.984Z,7.93
2018-06-09T20:21:17.021Z,8.83
2018-06-09T20:23:46.597Z,8.93
2018-06-09T20:26:16.191Z,10.27
2018-06-09T20:28:46.190Z,8.60
2018-06-09T20:31:19.395Z,8.13
2018-06-09T20:33:49.056Z,8.80
2018-06-09T20:36:18.352Z,8.90
2018-06-09T20:38:48.467Z,8.70
2018-06-09T20:41:17.501Z,8.67
2018-06-09T20:43:46.590Z,8.70
2018-06-09T20:46:16.020Z,8.93
2018-06-09T20:48:45.397Z,9.37
2018-06-09T20:51:14.540Z,8.53
2018-06-09T20:53:43.745Z,9.90
2018-06-09T20:56:12.837Z,11.40
2018-06-09T20:58:42.089Z,9.73
2018-06-09T21:01:11.467Z,9.37
2018-06-09T21:03:40.548Z,10.40
2018-06-09T21:06:10.248Z,8.93
2018-06-09T21:08:39.585Z,10.13
2018-06-09T21:11:08.797Z,10.50
2018-06-09T21:13:37.872Z,10.50
2018-06-09T21:16:06.924Z,8.97
2018-06-09T21:18:35.924Z,10.20
2018-06-09T21:21:04.965Z,10.67
2018-06-09T21:23:34.234Z,9.10
2018-06-09T21:26:03.354Z,11.00
2018-06-09T21:28:37.852Z,10.53
2018-06-09T21:31:12.303Z,10.57
2018-06-09T21:33:58.321Z,10.80
2018-06-09T21:36:29.952Z,11.97
2018-06-09T21:39:00.014Z,10.77
2018-06-09T21:41:34.776Z,12.17
2018-06-09T21:44:09.591Z,12.23
2018-06-09T21:46:45.402Z,12.50
2018-06-09T21:49:15.429Z,13.20
2018-06-09T21:51:44.664Z,11.87
2018-06-09T21:54:13.777Z,11.50
2018-06-09T21:56:43.020Z,11.77
2018-06-09T21:59:12.313Z,11.90
2018-06-09T22:01:41.501Z,11.70
2018-06-09T22:04:10.894Z,12.33
2018-06-09T22:06:40.090Z,13.67
2018-06-09T22:09:09.415Z,12.10
2018-06-09T22:11:38.530Z,12.13
2018-06-09T22:14:07.542Z,10.40
2018-06-09T22:16:36.568Z,13.60
2018-06-09T22:19:05.620Z,14.07
2018-06-09T22:21:34.648Z,13.37
2018-06-09T22:24:03.682Z,13.53
2018-06-09T22:26:32.709Z,13.23
2018-06-09T22:29:01.710Z,12.47
2018-06-09T22:31:30.695Z,12.40
2018-06-09T22:34:01.074Z,12.50
2018-06-09T22:36:30.369Z,13.43
2018-06-09T22:38:59.412Z,12.83
2018-06-09T22:41:28.617Z,12.60
2018-06-09T22:43:58.289Z,13.60
2018-06-09T22:46:27.696Z,12.83
2018-06-09T22:48:56.969Z,13.30
2018-06-09T22:51:26.124Z,14.63
2018-06-09T22:53:55.152Z,13.53
2018-06-09T22:56:24.389Z,13.17
2018-06-09T22:58:53.421Z,13.70
2018-06-09T23:01:22.417Z,14.43
2018-06-09T23:03:51.477Z,13.93
2018-06-09T23:06:20.482Z,13.47
2018-06-09T23:08:49.291Z,13.43
2018-06-09T23:11:18.188Z,13.27
2018-06-09T23:13:47.271Z,13.27
2018-06-09T23:16:16.069Z,13.30
2018-06-09T23:18:45.017Z,12.83
2018-06-09T23:21:14.060Z,13.93
2018-06-09T23:23:43.257Z,11.10
2018-06-09T23:26:12.462Z,12.70
2018-06-09T23:28:41.562Z,11.83
2018-06-09T23:31:10.774Z,13.50
2018-06-09T23:33:39.786Z,12.93
2018-06-09T23:36:08.916Z,12.37
2018-06-09T23:38:37.921Z,13.00
2018-06-09T23:41:06.924Z,13.70
2018-06-09T23:43:35.944Z,15.40
2018-06-09T23:46:04.950Z,14.50
2018-06-09T23:48:34.006Z,14.50
2018-06-09T23:51:03.034Z,14.83
2018-06-09T23:53:32.023Z,14.27
2018-06-09T23:56:01.025Z,15.33
2018-06-09T23:58:30.057Z,13.77
